PWSweather.com
Personal Weather Stations
Station Observations
KCTHAMDEN
Dunbar Hill, Hamden, CT 06514

Dunbar HillHamden, CT 06514

Lat: 41.365437, Lon: -72.956532

Elevation: 200

Station Type: Davis Vantage Pro2+

www.hamdenweather.com

High Low Average
Temperature 80.3°F26.8°C 58.1°F14.5°C 68.4°F20.2°C
Dew Point 68.8°F20.4°C 56.8°F13.8°C 62.1°F16.7°C
Winds 3.5 mph 5.6 kmh Calm Calm Calm SCalm S
Wind Gusts 7.0 mph11.3 kmh -- 1.0 mph1.6 kmh
Humidity 98% 55% 82%
Pressure 30.32 in1026.8 mb 30.22 in1023.4 mb -
Precipitation 0.00 in0.0 mm - -
Hour Temp Dew Point Humidity Winds Wind Gusts Pressure Precip Precip Rate Daily Precip Total
12:00 AM 61.0°F16.1°C 58.7°F14.8°C 92% Calm Calm -- 30.26 in1024.7 mb - 0.00 in0.0 mm 0.00 in0.0 mm
12:15 AM 60.9°F16.1°C 58.6°F14.8°C 92% Calm Calm -- 30.26 in1024.7 mb - 0.00 in0.0 mm 0.00 in0.0 mm
12:30 AM 60.8°F16.0°C 58.8°F14.9°C 93% Calm Calm -- 30.27 in1025.1 mb - 0.00 in0.0 mm 0.00 in0.0 mm
12:45 AM 60.6°F15.9°C 58.6°F14.8°C 93% Calm Calm -- 30.27 in1025.1 mb - 0.00 in0.0 mm 0.00 in0.0 mm
01:00 AM 60.4°F15.8°C 58.4°F14.7°C 93% Calm Calm -- 30.27 in1025.1 mb - 0.00 in0.0 mm 0.00 in0.0 mm
01:15 AM 60.3°F15.7°C 58.3°F14.6°C 93% Calm Calm 1.0 mph1.6 kmh 30.27 in1025.1 mb - 0.00 in0.0 mm 0.00 in0.0 mm
01:30 AM 60.2°F15.7°C 58.2°F14.6°C 93% Calm Calm -- 30.27 in1025.1 mb - 0.00 in0.0 mm 0.00 in0.0 mm
01:45 AM 60.1°F15.6°C 58.4°F14.7°C 94% Calm Calm -- 30.27 in1025.1 mb - 0.00 in0.0 mm 0.00 in0.0 mm
02:00 AM 60.2°F15.7°C 58.5°F14.7°C 94% Calm Calm -- 30.27 in1025.1 mb - 0.00 in0.0 mm 0.00 in0.0 mm
02:15 AM 60.6°F15.9°C 59.2°F15.1°C 95% Calm Calm -- 30.27 in1025.1 mb - 0.00 in0.0 mm 0.00 in0.0 mm
02:30 AM 60.5°F15.8°C 59.1°F15.1°C 95% Calm Calm -- 30.27 in1025.1 mb - 0.00 in0.0 mm 0.00 in0.0 mm
02:45 AM 60.3°F15.7°C 58.9°F14.9°C 95% Calm Calm -- 30.27 in1025.1 mb - 0.00 in0.0 mm 0.00 in0.0 mm
03:00 AM 60.0°F15.6°C 58.3°F14.6°C 94% Calm Calm -- 30.27 in1025.1 mb - 0.00 in0.0 mm 0.00 in0.0 mm
03:15 AM 59.8°F15.4°C 58.4°F14.7°C 95% Calm Calm -- 30.27 in1025.1 mb - 0.00 in0.0 mm 0.00 in0.0 mm
03:30 AM 59.8°F15.4°C 58.4°F14.7°C 95% Calm Calm -- 30.28 in1025.4 mb - 0.00 in0.0 mm 0.00 in0.0 mm
03:45 AM 59.7°F15.4°C 58.3°F14.6°C 95% Calm Calm -- 30.27 in1025.1 mb - 0.00 in0.0 mm 0.00 in0.0 mm
04:00 AM 59.6°F15.3°C 58.2°F14.6°C 95% Calm Calm -- 30.27 in1025.1 mb - 0.00 in0.0 mm 0.00 in0.0 mm
04:15 AM 59.6°F15.3°C 58.2°F14.6°C 95% Calm Calm -- 30.27 in1025.1 mb - 0.00 in0.0 mm 0.00 in0.0 mm
04:30 AM 59.6°F15.3°C 58.2°F14.6°C 95% Calm Calm -- 30.27 in1025.1 mb - 0.00 in0.0 mm 0.00 in0.0 mm
04:45 AM 59.5°F15.3°C 58.1°F14.5°C 95% Calm Calm -- 30.28 in1025.4 mb - 0.00 in0.0 mm 0.00 in0.0 mm
05:00 AM 59.2°F15.1°C 57.8°F14.3°C 95% Calm Calm -- 30.28 in1025.4 mb - 0.00 in0.0 mm 0.00 in0.0 mm
05:15 AM 58.9°F14.9°C 57.5°F14.2°C 95% Calm Calm -- 30.27 in1025.1 mb - 0.00 in0.0 mm 0.00 in0.0 mm
05:30 AM 58.7°F14.8°C 57.3°F14.1°C 95% Calm Calm -- 30.28 in1025.4 mb - 0.00 in0.0 mm 0.00 in0.0 mm
05:45 AM 58.6°F14.8°C 57.2°F14.0°C 95% Calm Calm -- 30.28 in1025.4 mb - 0.00 in0.0 mm 0.00 in0.0 mm
06:00 AM 58.5°F14.7°C 57.4°F14.1°C 96% Calm Calm -- 30.28 in1025.4 mb - 0.00 in0.0 mm 0.00 in0.0 mm
06:15 AM 58.4°F14.7°C 57.0°F13.9°C 95% Calm Calm -- 30.28 in1025.4 mb - 0.00 in0.0 mm 0.00 in0.0 mm
06:30 AM 58.2°F14.6°C 56.8°F13.8°C 95% Calm Calm -- 30.29 in1025.7 mb - 0.00 in0.0 mm 0.00 in0.0 mm
06:45 AM 58.1°F14.5°C 57.0°F13.9°C 96% Calm Calm -- 30.29 in1025.7 mb - 0.00 in0.0 mm 0.00 in0.0 mm
07:00 AM 58.6°F14.8°C 57.5°F14.2°C 96% Calm Calm -- 30.30 in1026.1 mb - 0.00 in0.0 mm 0.00 in0.0 mm
07:15 AM 59.3°F15.2°C 58.5°F14.7°C 97% Calm Calm -- 30.30 in1026.1 mb - 0.00 in0.0 mm 0.00 in0.0 mm
07:30 AM 60.1°F15.6°C 59.3°F15.2°C 97% Calm Calm -- 30.30 in1026.1 mb - 0.00 in0.0 mm 0.00 in0.0 mm
07:45 AM 60.8°F16.0°C 59.9°F15.5°C 97% Calm Calm -- 30.31 in1026.4 mb - 0.00 in0.0 mm 0.00 in0.0 mm
08:00 AM 61.6°F16.4°C 60.7°F15.9°C 97% Calm Calm -- 30.31 in1026.4 mb - 0.00 in0.0 mm 0.00 in0.0 mm
08:15 AM 63.0°F17.2°C 62.4°F16.9°C 98% Calm Calm -- 30.31 in1026.4 mb - 0.00 in0.0 mm 0.00 in0.0 mm
08:30 AM 64.9°F18.3°C 64.3°F17.9°C 98% Calm Calm -- 30.31 in1026.4 mb - 0.00 in0.0 mm 0.00 in0.0 mm
08:45 AM 66.5°F19.2°C 65.9°F18.8°C 98% Calm Calm -- 30.31 in1026.4 mb - 0.00 in0.0 mm 0.00 in0.0 mm
09:00 AM 68.6°F20.3°C 68.0°F20.0°C 98% Calm Calm 1.0 mph1.6 kmh 30.31 in1026.4 mb - 0.00 in0.0 mm 0.00 in0.0 mm
09:15 AM 70.0°F21.1°C 68.8°F20.4°C 96% 1.5 mph SE2.4 kmh SE 2.0 mph3.2 kmh 30.31 in1026.4 mb - 0.00 in0.0 mm 0.00 in0.0 mm
09:30 AM 71.5°F21.9°C 68.4°F20.2°C 90% 0.9 mph E1.4 kmh E 2.0 mph3.2 kmh 30.31 in1026.4 mb - 0.00 in0.0 mm 0.00 in0.0 mm
09:45 AM 73.7°F23.2°C 67.5°F19.7°C 81% 2.2 mph E3.5 kmh E 4.0 mph6.4 kmh 30.31 in1026.4 mb - 0.00 in0.0 mm 0.00 in0.0 mm
10:00 AM 75.3°F24.1°C 68.0°F20.0°C 78% 3.5 mph NE5.6 kmh NE 4.0 mph6.4 kmh 30.32 in1026.8 mb - 0.00 in0.0 mm 0.00 in0.0 mm
10:15 AM 76.7°F24.8°C 66.1°F18.9°C 70% 0.4 mph ESE0.6 kmh ESE 1.0 mph1.6 kmh 30.32 in1026.8 mb - 0.00 in0.0 mm 0.00 in0.0 mm
10:30 AM 78.4°F25.8°C 68.2°F20.1°C 71% 2.6 mph E4.2 kmh E 4.0 mph6.4 kmh 30.32 in1026.8 mb - 0.00 in0.0 mm 0.00 in0.0 mm
10:45 AM 78.1°F25.6°C 66.7°F19.3°C 68% 2.0 mph E3.2 kmh E 4.0 mph6.4 kmh 30.32 in1026.8 mb - 0.00 in0.0 mm 0.00 in0.0 mm
11:00 AM 78.7°F25.9°C 65.5°F18.6°C 64% 0.2 mph S0.3 kmh S 1.0 mph1.6 kmh 30.31 in1026.4 mb - 0.00 in0.0 mm 0.00 in0.0 mm
11:15 AM 78.0°F25.6°C 67.0°F19.4°C 69% 0.1 mph SSE0.2 kmh SSE 1.0 mph1.6 kmh 30.31 in1026.4 mb - 0.00 in0.0 mm 0.00 in0.0 mm
11:30 AM 77.4°F25.2°C 65.1°F18.4°C 66% Calm Calm 1.0 mph1.6 kmh 30.30 in1026.1 mb - 0.00 in0.0 mm 0.00 in0.0 mm
11:45 AM 78.8°F26.0°C 64.7°F18.2°C 62% 3.3 mph SE5.3 kmh SE 5.0 mph8.0 kmh 30.30 in1026.1 mb - 0.00 in0.0 mm 0.00 in0.0 mm
12:00 PM 79.2°F26.2°C 66.8°F19.3°C 66% 2.3 mph SSE3.7 kmh SSE 5.0 mph8.0 kmh 30.29 in1025.7 mb - 0.00 in0.0 mm 0.00 in0.0 mm
12:15 PM 79.7°F26.5°C 66.0°F18.9°C 63% 1.9 mph SE3.1 kmh SE 4.0 mph6.4 kmh 30.29 in1025.7 mb - 0.00 in0.0 mm 0.00 in0.0 mm
12:30 PM 80.3°F26.8°C 66.0°F18.9°C 62% 1.9 mph NE3.1 kmh NE 2.0 mph3.2 kmh 30.28 in1025.4 mb - 0.00 in0.0 mm 0.00 in0.0 mm
12:45 PM 80.1°F26.7°C 62.5°F16.9°C 55% 2.6 mph E4.2 kmh E 7.0 mph11.3 kmh 30.28 in1025.4 mb - 0.00 in0.0 mm 0.00 in0.0 mm
01:00 PM 80.0°F26.7°C 62.9°F17.2°C 56% 1.7 mph SW2.7 kmh SW 2.0 mph3.2 kmh 30.27 in1025.1 mb - 0.00 in0.0 mm 0.00 in0.0 mm
01:15 PM 79.7°F26.5°C 64.1°F17.8°C 59% 1.1 mph E1.8 kmh E 2.0 mph3.2 kmh 30.27 in1025.1 mb - 0.00 in0.0 mm 0.00 in0.0 mm
01:30 PM 79.6°F26.4°C 63.0°F17.2°C 57% 0.4 mph WSW0.6 kmh WSW 1.0 mph1.6 kmh 30.26 in1024.7 mb - 0.00 in0.0 mm 0.00 in0.0 mm
01:45 PM 79.5°F26.4°C 66.2°F19.0°C 64% 1.5 mph ESE2.4 kmh ESE 3.0 mph4.8 kmh 30.26 in1024.7 mb - 0.00 in0.0 mm 0.00 in0.0 mm
02:00 PM 79.6°F26.4°C 62.0°F16.7°C 55% 0.8 mph S1.3 kmh S 2.0 mph3.2 kmh 30.26 in1024.7 mb - 0.00 in0.0 mm 0.00 in0.0 mm
02:15 PM 79.1°F26.2°C 62.1°F16.7°C 56% 0.4 mph SE0.6 kmh SE 1.0 mph1.6 kmh 30.26 in1024.7 mb - 0.00 in0.0 mm 0.00 in0.0 mm
02:30 PM 78.2°F25.7°C 64.6°F18.1°C 63% Calm Calm -- 30.25 in1024.4 mb - 0.00 in0.0 mm 0.00 in0.0 mm
02:45 PM 78.7°F25.9°C 66.0°F18.9°C 65% 0.6 mph SE1.0 kmh SE -- 30.25 in1024.4 mb - 0.00 in0.0 mm 0.00 in0.0 mm
03:00 PM 79.1°F26.2°C 65.0°F18.3°C 62% 0.2 mph SE0.3 kmh SE 2.0 mph3.2 kmh 30.25 in1024.4 mb - 0.00 in0.0 mm 0.00 in0.0 mm
03:15 PM 78.9°F26.1°C 64.8°F18.2°C 62% 1.7 mph E2.7 kmh E 4.0 mph6.4 kmh 30.24 in1024.0 mb - 0.00 in0.0 mm 0.00 in0.0 mm
03:30 PM 78.5°F25.8°C 63.9°F17.7°C 61% 0.2 mph S0.3 kmh S 2.0 mph3.2 kmh 30.24 in1024.0 mb - 0.00 in0.0 mm 0.00 in0.0 mm
03:45 PM 78.5°F25.8°C 64.4°F18.0°C 62% 0.9 mph SSE1.4 kmh SSE 2.0 mph3.2 kmh 30.24 in1024.0 mb - 0.00 in0.0 mm 0.00 in0.0 mm
04:00 PM 78.7°F25.9°C 65.5°F18.6°C 64% 0.9 mph SE1.4 kmh SE 2.0 mph3.2 kmh 30.24 in1024.0 mb - 0.00 in0.0 mm 0.00 in0.0 mm
04:15 PM 79.1°F26.2°C 66.8°F19.3°C 66% 0.8 mph SE1.3 kmh SE 2.0 mph3.2 kmh 30.24 in1024.0 mb - 0.00 in0.0 mm 0.00 in0.0 mm
04:30 PM 78.8°F26.0°C 67.3°F19.6°C 68% Calm Calm -- 30.24 in1024.0 mb - 0.00 in0.0 mm 0.00 in0.0 mm
04:45 PM 78.3°F25.7°C 65.1°F18.4°C 64% 1.2 mph SSE1.9 kmh SSE 4.0 mph6.4 kmh 30.24 in1024.0 mb - 0.00 in0.0 mm 0.00 in0.0 mm
05:00 PM 77.9°F25.5°C 66.5°F19.2°C 68% 0.7 mph SE1.1 kmh SE 4.0 mph6.4 kmh 30.23 in1023.7 mb - 0.00 in0.0 mm 0.00 in0.0 mm
05:15 PM 77.4°F25.2°C 66.4°F19.1°C 69% 0.2 mph SE0.3 kmh SE 1.0 mph1.6 kmh 30.23 in1023.7 mb - 0.00 in0.0 mm 0.00 in0.0 mm
05:30 PM 77.0°F25.0°C 66.1°F18.9°C 69% Calm Calm 1.0 mph1.6 kmh 30.23 in1023.7 mb - 0.00 in0.0 mm 0.00 in0.0 mm
05:45 PM 76.3°F24.6°C 65.8°F18.8°C 70% Calm Calm -- 30.23 in1023.7 mb - 0.00 in0.0 mm 0.00 in0.0 mm
06:00 PM 75.4°F24.1°C 64.6°F18.1°C 69% 0.2 mph S0.3 kmh S -- 30.23 in1023.7 mb - 0.00 in0.0 mm 0.00 in0.0 mm
06:15 PM 74.7°F23.7°C 64.7°F18.2°C 71% 0.5 mph SE0.8 kmh SE 2.0 mph3.2 kmh 30.23 in1023.7 mb - 0.00 in0.0 mm 0.00 in0.0 mm
06:30 PM 74.0°F23.3°C 64.0°F17.8°C 71% Calm Calm -- 30.23 in1023.7 mb - 0.00 in0.0 mm 0.00 in0.0 mm
06:45 PM 73.3°F22.9°C 64.9°F18.3°C 75% Calm Calm -- 30.22 in1023.4 mb - 0.00 in0.0 mm 0.00 in0.0 mm
07:00 PM 72.1°F22.3°C 64.5°F18.1°C 77% Calm Calm -- 30.23 in1023.7 mb - 0.00 in0.0 mm 0.00 in0.0 mm
07:15 PM 71.4°F21.9°C 64.6°F18.1°C 79% Calm Calm -- 30.23 in1023.7 mb - 0.00 in0.0 mm 0.00 in0.0 mm
07:30 PM 70.7°F21.5°C 64.2°F17.9°C 80% 0.4 mph WSW0.6 kmh WSW -- 30.22 in1023.4 mb - 0.00 in0.0 mm 0.00 in0.0 mm
07:45 PM 69.8°F21.0°C 63.7°F17.6°C 81% Calm Calm -- 30.22 in1023.4 mb - 0.00 in0.0 mm 0.00 in0.0 mm
08:00 PM 69.1°F20.6°C 63.7°F17.6°C 83% Calm Calm -- 30.23 in1023.7 mb - 0.00 in0.0 mm 0.00 in0.0 mm
08:15 PM 68.1°F20.1°C 63.1°F17.3°C 84% Calm Calm -- 30.23 in1023.7 mb - 0.00 in0.0 mm 0.00 in0.0 mm
08:30 PM 67.1°F19.5°C 62.8°F17.1°C 86% Calm Calm -- 30.23 in1023.7 mb - 0.00 in0.0 mm 0.00 in0.0 mm
08:45 PM 66.2°F19.0°C 62.2°F16.8°C 87% Calm Calm -- 30.23 in1023.7 mb - 0.00 in0.0 mm 0.00 in0.0 mm
09:00 PM 65.4°F18.6°C 61.8°F16.6°C 88% Calm Calm -- 30.23 in1023.7 mb - 0.00 in0.0 mm 0.00 in0.0 mm
09:15 PM 64.7°F18.2°C 61.4°F16.3°C 89% Calm Calm -- 30.24 in1024.0 mb - 0.00 in0.0 mm 0.00 in0.0 mm
09:30 PM 64.1°F17.8°C 60.8°F16.0°C 89% Calm Calm -- 30.24 in1024.0 mb - 0.00 in0.0 mm 0.00 in0.0 mm
09:45 PM 63.6°F17.6°C 60.3°F15.7°C 89% Calm Calm -- 30.23 in1023.7 mb - 0.00 in0.0 mm 0.00 in0.0 mm
10:00 PM 63.1°F17.3°C 59.9°F15.5°C 89% Calm Calm -- 30.23 in1023.7 mb - 0.00 in0.0 mm 0.00 in0.0 mm
10:15 PM 62.7°F17.1°C 59.7°F15.4°C 90% Calm Calm -- 30.23 in1023.7 mb - 0.00 in0.0 mm 0.00 in0.0 mm
10:30 PM 62.3°F16.8°C 59.3°F15.2°C 90% Calm Calm -- 30.23 in1023.7 mb - 0.00 in0.0 mm 0.00 in0.0 mm
10:45 PM 62.2°F16.8°C 59.8°F15.4°C 92% Calm Calm -- 30.23 in1023.7 mb - 0.00 in0.0 mm 0.00 in0.0 mm
11:00 PM 61.9°F16.6°C 59.5°F15.3°C 92% Calm Calm -- 30.23 in1023.7 mb - 0.00 in0.0 mm 0.00 in0.0 mm
11:15 PM 61.6°F16.4°C 59.3°F15.2°C 92% Calm Calm -- 30.23 in1023.7 mb - 0.00 in0.0 mm 0.00 in0.0 mm
11:30 PM 61.4°F16.3°C 59.1°F15.1°C 92% Calm Calm -- 30.22 in1023.4 mb - 0.00 in0.0 mm 0.00 in0.0 mm
11:45 PM 61.0°F16.1°C 58.7°F14.8°C 92% Calm Calm -- 30.23 in1023.7 mb - 0.00 in0.0 mm 0.00 in0.0 mm